createdAt,value
2022-12-17T00:00:33.332Z,19.58
2022-12-17T00:03:19.767Z,20.27
2022-12-17T00:06:05.473Z,22.23
2022-12-17T00:08:50.362Z,21.45
2022-12-17T00:11:35.212Z,22.55
2022-12-17T00:14:20.175Z,21.17
2022-12-17T00:17:05.215Z,20.75
2022-12-17T00:19:50.531Z,20.92
2022-12-17T00:22:35.363Z,23.17
2022-12-17T00:25:20.112Z,24.38
2022-12-17T00:28:05.158Z,23.10
2022-12-17T00:30:50.194Z,21.67
2022-12-17T00:33:35.487Z,21.80
2022-12-17T00:36:20.891Z,22.83
2022-12-17T00:39:05.788Z,24.25
2022-12-17T00:41:50.796Z,24.65
2022-12-17T00:44:35.856Z,25.13
2022-12-17T00:47:20.747Z,25.95
2022-12-17T00:50:06.966Z,24.85
2022-12-17T00:52:52.113Z,24.50
2022-12-17T00:55:36.989Z,22.95
2022-12-17T00:58:22.361Z,23.25
2022-12-17T01:01:07.253Z,24.52
2022-12-17T01:03:52.398Z,23.48
2022-12-17T01:06:37.616Z,24.17
2022-12-17T01:09:22.361Z,25.10
2022-12-17T01:12:07.382Z,23.67
2022-12-17T01:14:54.916Z,23.70
2022-12-17T01:17:40.168Z,25.70
2022-12-17T01:20:26.152Z,25.38
2022-12-17T01:23:11.655Z,23.98
2022-12-17T01:26:16.459Z,23.88
2022-12-17T01:29:01.766Z,24.40
2022-12-17T01:31:47.155Z,24.48
2022-12-17T01:34:32.105Z,22.63
2022-12-17T01:37:16.988Z,23.67
2022-12-17T01:40:01.970Z,24.40
2022-12-17T01:43:01.208Z,24.90
2022-12-17T01:45:55.448Z,22.98
2022-12-17T01:48:46.169Z,25.17
2022-12-17T01:51:32.893Z,25.77
2022-12-17T01:54:20.760Z,23.50
2022-12-17T01:57:06.051Z,24.13
2022-12-17T02:00:02.430Z,24.90
2022-12-17T02:02:48.002Z,25.45
2022-12-17T02:05:33.297Z,23.48
2022-12-17T02:08:37.116Z,23.88
2022-12-17T02:11:44.989Z,22.80
2022-12-17T02:14:52.001Z,24.08
2022-12-17T02:17:42.704Z,22.98
2022-12-17T02:20:36.680Z,24.30
2022-12-17T02:23:40.613Z,24.27
2022-12-17T02:26:40.036Z,23.50
2022-12-17T02:29:31.188Z,23.08
2022-12-17T02:32:16.447Z,25.20
2022-12-17T02:35:03.977Z,21.75
2022-12-17T02:37:50.377Z,24.90
2022-12-17T02:40:39.180Z,26.55
2022-12-17T02:43:26.278Z,23.42
2022-12-17T02:46:14.659Z,25.15
2022-12-17T02:49:00.485Z,25.52
2022-12-17T02:51:49.082Z,25.55
2022-12-17T02:54:34.213Z,24.20
2022-12-17T02:57:19.331Z,23.33
2022-12-17T03:00:04.178Z,24.27
2022-12-17T03:02:51.717Z,24.35
2022-12-17T03:05:45.043Z,25.20
2022-12-17T03:08:30.887Z,25.98
2022-12-17T03:11:16.247Z,25.65
2022-12-17T03:14:01.217Z,23.90
2022-12-17T03:16:46.583Z,23.98
2022-12-17T03:19:31.769Z,24.42
2022-12-17T03:22:16.762Z,23.25
2022-12-17T03:25:01.968Z,23.70
2022-12-17T03:27:46.882Z,23.33
2022-12-17T03:30:35.736Z,23.88
2022-12-17T03:33:21.385Z,23.20
2022-12-17T03:36:06.274Z,24.65
2022-12-17T03:38:51.065Z,24.27
2022-12-17T03:41:36.041Z,23.77
2022-12-17T03:44:20.871Z,25.60
2022-12-17T03:47:05.659Z,25.88
2022-12-17T03:49:50.636Z,26.13
2022-12-17T03:52:35.472Z,28.70
2022-12-17T03:55:20.360Z,29.27
2022-12-17T03:58:05.055Z,24.40
2022-12-17T04:00:50.130Z,24.05
2022-12-17T04:03:35.549Z,25.38
2022-12-17T04:06:20.944Z,25.95
2022-12-17T04:09:05.838Z,25.92
2022-12-17T04:11:50.676Z,23.42
2022-12-17T04:14:35.470Z,25.73
2022-12-17T04:17:20.320Z,26.50
2022-12-17T04:20:05.223Z,26.00
2022-12-17T04:22:49.978Z,24.95
2022-12-17T04:25:34.913Z,24.48
2022-12-17T04:28:19.724Z,25.75
2022-12-17T04:31:04.579Z,25.23
2022-12-17T04:33:49.731Z,24.58
2022-12-17T04:36:34.568Z,24.90
2022-12-17T04:39:19.325Z,23.55
2022-12-17T04:42:04.125Z,24.55
2022-12-17T04:44:49.130Z,23.63
2022-12-17T04:47:33.968Z,23.67
2022-12-17T04:50:18.918Z,26.33
2022-12-17T04:53:03.707Z,25.63
2022-12-17T04:55:48.614Z,24.38
2022-12-17T04:58:33.414Z,25.17
2022-12-17T05:01:18.470Z,24.23
2022-12-17T05:04:03.693Z,24.23
2022-12-17T05:06:48.949Z,24.05
2022-12-17T05:09:34.129Z,27.30
2022-12-17T05:12:18.846Z,27.33
2022-12-17T05:15:03.666Z,25.83
2022-12-17T05:17:48.452Z,25.33
2022-12-17T05:20:33.281Z,24.13
2022-12-17T05:23:25.732Z,24.63
2022-12-17T05:26:23.658Z,24.70
2022-12-17T05:29:12.645Z,23.67
2022-12-17T05:32:01.015Z,25.75
2022-12-17T05:34:45.728Z,25.23
2022-12-17T05:37:30.526Z,27.08
2022-12-17T05:40:15.640Z,26.70
2022-12-17T05:43:00.482Z,24.13
2022-12-17T05:45:45.397Z,25.15
2022-12-17T05:48:30.250Z,24.52
2022-12-17T05:51:15.409Z,27.20
2022-12-17T05:54:00.282Z,26.27
2022-12-17T05:56:45.133Z,24.92
2022-12-17T05:59:29.857Z,23.30
2022-12-17T06:02:14.796Z,22.80
2022-12-17T06:05:02.275Z,23.23
2022-12-17T06:07:47.495Z,24.25
2022-12-17T06:10:32.383Z,25.55
2022-12-17T06:13:17.105Z,27.45
2022-12-17T06:16:02.103Z,25.92
2022-12-17T06:18:47.248Z,24.73
2022-12-17T06:21:32.132Z,25.25
2022-12-17T06:24:16.964Z,25.33
2022-12-17T06:27:01.678Z,23.90
2022-12-17T06:29:46.653Z,23.27
2022-12-17T06:32:31.484Z,24.60
2022-12-17T06:35:16.283Z,25.42
2022-12-17T06:38:01.138Z,24.20
2022-12-17T06:41:00.139Z,26.25
2022-12-17T06:43:44.933Z,25.17
2022-12-17T06:46:29.818Z,24.65
2022-12-17T06:49:14.998Z,27.23
2022-12-17T06:51:59.784Z,27.13
2022-12-17T06:54:44.659Z,29.95
2022-12-17T06:57:29.864Z,26.92
2022-12-17T07:00:14.716Z,27.90
2022-12-17T07:02:59.787Z,26.65
2022-12-17T07:05:45.395Z,25.15
2022-12-17T07:08:30.499Z,23.42
2022-12-17T07:11:18.777Z,27.27
2022-12-17T07:14:04.094Z,27.85
2022-12-17T07:16:48.852Z,27.42
2022-12-17T07:19:33.954Z,26.73
2022-12-17T07:22:18.773Z,28.27
2022-12-17T07:25:03.935Z,29.85
2022-12-17T07:27:48.892Z,29.00
2022-12-17T07:30:33.676Z,36.55
2022-12-17T07:33:20.104Z,31.25
2022-12-17T07:36:04.918Z,28.92
2022-12-17T07:38:49.851Z,25.98
2022-12-17T07:41:34.574Z,26.35
2022-12-17T07:44:19.517Z,28.08
2022-12-17T07:47:04.391Z,26.58
2022-12-17T07:49:49.751Z,27.13
2022-12-17T07:52:34.625Z,25.85
2022-12-17T07:55:19.862Z,26.70
2022-12-17T07:58:04.712Z,29.55
2022-12-17T08:00:54.015Z,31.73
2022-12-17T08:03:39.449Z,26.17
2022-12-17T08:06:25.194Z,28.08
2022-12-17T08:09:09.964Z,25.67
2022-12-17T08:11:55.213Z,26.45
2022-12-17T08:14:40.057Z,27.08
2022-12-17T08:17:24.993Z,24.55
2022-12-17T08:20:09.882Z,25.20
2022-12-17T08:22:54.696Z,26.17
2022-12-17T08:25:39.615Z,27.75
2022-12-17T08:28:49.502Z,23.85
2022-12-17T08:31:29.473Z,24.73
2022-12-17T08:34:14.354Z,27.15
2022-12-17T08:36:59.195Z,27.33
2022-12-17T08:40:03.962Z,30.52
2022-12-17T08:42:48.989Z,32.38
2022-12-17T08:45:34.141Z,31.08
2022-12-17T08:48:42.820Z,33.47
2022-12-17T08:51:27.948Z,32.30
2022-12-17T08:54:12.738Z,38.70
2022-12-17T08:56:57.701Z,33.38
2022-12-17T08:59:42.599Z,30.83
2022-12-17T09:02:28.113Z,30.80
2022-12-17T09:05:13.064Z,40.47
2022-12-17T09:08:05.820Z,36.70
2022-12-17T09:10:51.083Z,36.92
2022-12-17T09:13:36.177Z,41.25
2022-12-17T09:16:21.189Z,41.80
2022-12-17T09:19:06.242Z,39.65
2022-12-17T09:21:51.045Z,45.05
2022-12-17T09:24:35.833Z,39.97
2022-12-17T09:27:20.911Z,41.45
2022-12-17T09:30:05.710Z,35.85
2022-12-17T09:32:50.605Z,33.80
2022-12-17T09:35:35.721Z,36.28
2022-12-17T09:38:20.689Z,32.40
2022-12-17T09:41:08.805Z,30.17
2022-12-17T09:44:09.358Z,31.85
2022-12-17T09:47:19.531Z,31.67
2022-12-17T09:50:04.240Z,31.13
2022-12-17T09:52:55.070Z,33.97
2022-12-17T09:55:46.014Z,26.88
2022-12-17T09:58:44.018Z,25.92
2022-12-17T10:01:43.687Z,22.02
2022-12-17T10:04:46.959Z,19.67
2022-12-17T10:07:37.122Z,19.63
2022-12-17T10:10:35.647Z,17.60
2022-12-17T10:13:20.452Z,16.35
2022-12-17T10:16:05.354Z,15.98
2022-12-17T10:18:50.500Z,15.93
2022-12-17T10:21:37.885Z,17.98
2022-12-17T10:24:25.391Z,18.65
2022-12-17T10:27:10.586Z,19.52
2022-12-17T10:29:55.877Z,17.80
2022-12-17T10:32:43.384Z,15.70
2022-12-17T10:35:55.505Z,15.63
2022-12-17T10:38:46.597Z,15.25
2022-12-17T10:41:43.785Z,17.08
2022-12-17T10:44:39.649Z,16.02
2022-12-17T10:47:30.488Z,15.90
2022-12-17T10:50:17.194Z,17.88
2022-12-17T10:53:04.574Z,16.02
2022-12-17T10:55:51.410Z,16.58
2022-12-17T10:58:48.382Z,16.20
2022-12-17T11:01:42.467Z,16.38
2022-12-17T11:04:43.171Z,16.02
2022-12-17T11:07:33.987Z,18.15
2022-12-17T11:10:20.815Z,17.63
2022-12-17T11:13:20.347Z,17.25
2022-12-17T11:16:08.246Z,16.13
2022-12-17T11:19:02.696Z,16.50
2022-12-17T11:21:53.634Z,17.02
2022-12-17T11:24:50.942Z,17.30
2022-12-17T11:27:40.336Z,16.40
2022-12-17T11:30:40.475Z,15.80
2022-12-17T11:33:40.662Z,16.08
2022-12-17T11:36:45.594Z,16.02
2022-12-17T11:39:57.025Z,15.98
2022-12-17T11:43:11.053Z,16.35
2022-12-17T11:46:13.580Z,17.02
2022-12-17T11:49:06.662Z,15.98
2022-12-17T11:52:15.909Z,16.50
2022-12-17T11:55:28.452Z,15.20
2022-12-17T11:58:36.731Z,15.85
2022-12-17T12:01:34.951Z,16.17
2022-12-17T12:04:33.193Z,14.27
2022-12-17T12:07:38.772Z,16.30
2022-12-17T12:11:20.953Z,16.40
2022-12-17T12:17:08.545Z,16.50
2022-12-17T12:20:18.958Z,16.80
2022-12-17T12:23:21.360Z,17.25
2022-12-17T12:26:40.978Z,15.52
2022-12-17T12:29:47.310Z,14.10
2022-12-17T12:33:09.660Z,14.77
2022-12-17T12:35:56.845Z,16.27
2022-12-17T12:38:52.793Z,16.85
2022-12-17T12:41:49.920Z,17.65
2022-12-17T12:44:49.850Z,16.83
2022-12-17T12:47:59.049Z,18.27
2022-12-17T12:51:33.591Z,18.38
2022-12-17T12:54:21.032Z,18.02
2022-12-17T12:57:06.275Z,17.05
2022-12-17T12:59:53.735Z,17.25
2022-12-17T13:02:38.481Z,16.63
2022-12-17T13:05:33.581Z,17.60
2022-12-17T13:08:23.129Z,18.55
2022-12-17T13:10:51.061Z,20.45
2022-12-17T13:13:27.576Z,17.92
2022-12-17T13:15:57.531Z,18.88
2022-12-17T13:18:32.997Z,20.77
2022-12-17T13:21:02.868Z,19.55
2022-12-17T13:23:38.046Z,19.98
2022-12-17T13:26:30.006Z,19.00
2022-12-17T13:29:11.609Z,21.08
2022-12-17T13:34:52.798Z,18.52
2022-12-17T13:37:22.294Z,17.40
2022-12-17T13:39:54.683Z,17.88
2022-12-17T13:42:30.323Z,19.52
2022-12-17T13:44:57.794Z,17.77
2022-12-17T13:47:28.049Z,19.13
2022-12-17T13:50:32.274Z,18.63
2022-12-17T13:52:43.332Z,18.33
2022-12-17T13:55:19.468Z,18.50
2022-12-17T13:57:47.840Z,18.63
2022-12-17T14:00:20.477Z,19.13
2022-12-17T14:02:47.557Z,20.40
2022-12-17T14:05:41.558Z,20.08
2022-12-17T14:08:08.986Z,19.02
2022-12-17T14:10:35.538Z,19.65
2022-12-17T14:13:12.980Z,18.05
2022-12-17T14:15:47.224Z,19.70
2022-12-17T14:18:19.925Z,21.00
2022-12-17T14:20:47.609Z,21.05
2022-12-17T14:23:28.770Z,21.20
2022-12-17T14:25:56.428Z,20.38
2022-12-17T14:28:48.702Z,21.45
2022-12-17T14:31:29.882Z,22.42
2022-12-17T14:34:08.674Z,22.52
2022-12-17T14:36:37.908Z,21.92
2022-12-17T14:39:24.170Z,20.88
2022-12-17T14:42:10.168Z,20.63
2022-12-17T14:44:42.729Z,21.58
2022-12-17T14:47:23.423Z,20.75
2022-12-17T14:50:12.657Z,21.27
2022-12-17T14:52:44.415Z,21.65
2022-12-17T14:55:36.847Z,19.98
2022-12-17T14:58:12.159Z,20.88
2022-12-17T15:00:45.272Z,22.40
2022-12-17T15:03:18.371Z,22.98
2022-12-17T15:05:51.084Z,21.98
2022-12-17T15:08:17.628Z,21.40
2022-12-17T15:10:44.092Z,23.65
2022-12-17T15:13:10.533Z,20.77
2022-12-17T15:15:36.923Z,21.63
2022-12-17T15:18:03.423Z,21.27
2022-12-17T15:20:31.128Z,22.92
2022-12-17T15:22:57.707Z,21.92
2022-12-17T15:25:24.174Z,22.40
2022-12-17T15:27:50.868Z,21.92
2022-12-17T15:30:17.932Z,23.73
2022-12-17T15:32:45.225Z,26.10
2022-12-17T15:35:13.362Z,21.15
2022-12-17T15:37:40.311Z,22.73
2022-12-17T15:40:07.937Z,23.58
2022-12-17T15:42:53.025Z,23.60
2022-12-17T15:45:19.429Z,23.15
2022-12-17T15:47:45.840Z,26.67
2022-12-17T15:50:12.237Z,25.30
2022-12-17T15:52:38.674Z,25.35
2022-12-17T15:55:05.505Z,25.45
2022-12-17T15:57:32.006Z,24.10
2022-12-17T15:59:58.453Z,25.35
2022-12-17T16:02:25.108Z,24.85
2022-12-17T16:04:52.630Z,27.00
2022-12-17T16:07:19.142Z,26.95
2022-12-17T16:09:45.545Z,25.88
2022-12-17T16:12:11.991Z,29.25
2022-12-17T16:14:38.451Z,30.95
2022-12-17T16:17:04.874Z,29.83
2022-12-17T16:19:31.353Z,33.85
2022-12-17T16:21:57.810Z,32.03
2022-12-17T16:24:24.218Z,31.27
2022-12-17T16:26:50.715Z,30.42
2022-12-17T16:29:17.140Z,29.10
2022-12-17T16:31:43.668Z,33.03
2022-12-17T16:34:11.761Z,31.23
2022-12-17T16:36:38.663Z,26.80
2022-12-17T16:39:05.580Z,27.95
2022-12-17T16:41:32.455Z,28.55
2022-12-17T16:43:59.201Z,29.85
2022-12-17T16:46:31.564Z,30.30
2022-12-17T16:49:00.292Z,28.92
2022-12-17T16:51:29.532Z,30.30
2022-12-17T16:53:57.538Z,31.58
2022-12-17T16:56:27.527Z,29.30
2022-12-17T16:58:55.108Z,28.55
2022-12-17T17:01:25.360Z,29.45
2022-12-17T17:03:52.491Z,29.38
2022-12-17T17:06:19.490Z,28.33
2022-12-17T17:08:46.829Z,32.08
2022-12-17T17:11:15.569Z,35.33
2022-12-17T17:13:42.711Z,35.53
2022-12-17T17:16:10.720Z,34.53
2022-12-17T17:18:38.026Z,36.20
2022-12-17T17:21:19.607Z,31.17
2022-12-17T17:26:13.916Z,26.40
2022-12-17T17:28:40.908Z,25.92
2022-12-17T17:31:10.772Z,25.77
2022-12-17T17:33:39.994Z,25.08
2022-12-17T17:36:08.725Z,24.92
2022-12-17T17:38:37.113Z,24.48
2022-12-17T17:41:04.784Z,25.38
2022-12-17T17:43:31.800Z,25.20
2022-12-17T17:46:10.507Z,27.30
2022-12-17T17:48:37.732Z,29.05
2022-12-17T17:51:08.320Z,28.05
2022-12-17T17:53:35.584Z,28.10
2022-12-17T17:56:07.545Z,29.40
2022-12-17T17:58:34.785Z,30.52
2022-12-17T18:01:08.296Z,29.38
2022-12-17T18:03:34.911Z,33.97
2022-12-17T18:06:06.232Z,33.67
2022-12-17T18:11:01.972Z,27.65
2022-12-17T18:13:47.003Z,28.17
2022-12-17T18:18:41.594Z,28.83
2022-12-17T18:21:17.173Z,31.23
2022-12-17T18:23:43.803Z,30.73
2022-12-17T18:26:16.756Z,33.03
2022-12-17T18:28:44.348Z,29.98
2022-12-17T18:31:22.926Z,28.92
2022-12-17T18:33:58.638Z,30.98
2022-12-17T18:36:28.661Z,29.75
2022-12-17T18:39:00.733Z,32.28
2022-12-17T18:41:46.521Z,34.92
2022-12-17T18:44:14.359Z,29.80
2022-12-17T18:46:40.868Z,25.70
2022-12-17T18:49:09.790Z,30.63
2022-12-17T18:51:37.964Z,30.92
2022-12-17T18:54:08.495Z,30.27
2022-12-17T18:57:00.519Z,27.27
2022-12-17T18:59:29.074Z,34.72
2022-12-17T19:01:56.600Z,31.85
2022-12-17T19:04:23.925Z,30.80
2022-12-17T19:06:53.280Z,28.92
2022-12-17T19:09:28.965Z,30.15
2022-12-17T19:11:56.045Z,27.95
2022-12-17T19:14:23.232Z,28.73
2022-12-17T19:16:51.276Z,28.30
2022-12-17T19:19:18.962Z,27.30
2022-12-17T19:21:46.022Z,27.10
2022-12-17T19:24:14.452Z,28.05
2022-12-17T19:26:41.105Z,26.65
2022-12-17T19:29:08.534Z,27.40
2022-12-17T19:31:35.306Z,27.15
2022-12-17T19:34:04.874Z,27.13
2022-12-17T19:36:33.213Z,26.65
2022-12-17T19:39:03.485Z,29.42
2022-12-17T19:41:31.878Z,30.80
2022-12-17T19:44:01.054Z,29.98
2022-12-17T19:46:27.854Z,30.95
2022-12-17T19:48:54.842Z,29.08
2022-12-17T19:51:25.931Z,31.48
2022-12-17T19:53:52.619Z,31.05
2022-12-17T19:56:26.226Z,29.85
2022-12-17T19:58:55.969Z,31.95
2022-12-17T20:01:25.585Z,33.17
2022-12-17T20:03:53.690Z,35.55
2022-12-17T20:06:23.802Z,38.78
2022-12-17T20:08:50.682Z,34.35
2022-12-17T20:11:33.425Z,35.40
2022-12-17T20:14:26.548Z,32.95
2022-12-17T20:16:56.954Z,31.98
2022-12-17T20:19:26.073Z,35.45
2022-12-17T20:21:53.466Z,34.83
2022-12-17T20:24:19.993Z,36.38
2022-12-17T20:26:49.895Z,35.80
2022-12-17T20:29:17.744Z,36.17
2022-12-17T20:31:49.375Z,40.30
2022-12-17T20:34:17.302Z,38.75
2022-12-17T20:36:44.764Z,38.00
2022-12-17T20:39:11.783Z,40.20
2022-12-17T20:41:40.102Z,38.40
2022-12-17T20:44:10.965Z,40.22
2022-12-17T20:46:37.768Z,40.83
2022-12-17T20:49:05.238Z,41.00
2022-12-17T20:51:32.074Z,42.45
2022-12-17T20:54:00.131Z,37.63
2022-12-17T20:56:32.406Z,40.55
2022-12-17T20:59:04.810Z,38.40
2022-12-17T21:01:33.731Z,40.42
2022-12-17T21:04:01.233Z,39.92
2022-12-17T21:06:35.211Z,42.28
2022-12-17T21:09:02.222Z,38.33
2022-12-17T21:11:30.337Z,40.00
2022-12-17T21:13:57.619Z,36.67
2022-12-17T21:16:28.008Z,38.35
2022-12-17T21:18:55.545Z,36.92
2022-12-17T21:21:25.366Z,36.17
2022-12-17T21:23:52.838Z,36.83
2022-12-17T21:26:28.258Z,35.13
2022-12-17T21:28:59.152Z,35.42
2022-12-17T21:31:27.104Z,37.38
2022-12-17T21:33:57.866Z,36.40
2022-12-17T21:36:26.217Z,36.40
2022-12-17T21:38:53.369Z,36.63
2022-12-17T21:41:22.826Z,36.55
2022-12-17T21:43:54.540Z,36.95
2022-12-17T21:46:21.147Z,36.35
2022-12-17T21:48:48.073Z,38.42
2022-12-17T21:51:15.099Z,36.55
2022-12-17T21:53:43.539Z,38.70
2022-12-17T21:56:13.116Z,36.97
2022-12-17T21:58:41.024Z,36.03
2022-12-17T22:01:16.692Z,38.80
2022-12-17T22:03:45.999Z,35.95
2022-12-17T22:06:15.280Z,35.40
2022-12-17T22:08:42.872Z,40.25
2022-12-17T22:11:19.167Z,34.78
2022-12-17T22:14:08.927Z,36.45
2022-12-17T22:16:42.247Z,34.90
2022-12-17T22:19:11.073Z,35.20
2022-12-17T22:21:39.768Z,36.28
2022-12-17T22:24:07.438Z,37.70
2022-12-17T22:26:34.025Z,36.58
2022-12-17T22:29:00.783Z,35.72
2022-12-17T22:31:45.676Z,35.60
2022-12-17T22:35:05.155Z,34.17
2022-12-17T22:39:44.932Z,34.22
2022-12-17T22:44:33.953Z,35.05
2022-12-17T22:44:40.695Z,33.25
2022-12-17T22:45:48.842Z,32.00
2022-12-17T22:48:15.716Z,31.45
2022-12-17T22:51:01.300Z,30.20
2022-12-17T22:53:29.264Z,27.90
2022-12-17T22:56:14.610Z,28.08
2022-12-17T22:58:51.428Z,27.00
2022-12-17T23:01:22.733Z,26.75
2022-12-17T23:03:49.856Z,27.27
2022-12-17T23:06:17.816Z,23.67
2022-12-17T23:08:45.094Z,22.35
2022-12-17T23:11:14.558Z,24.88
2022-12-17T23:13:42.064Z,24.25
2022-12-17T23:16:11.091Z,23.15
2022-12-17T23:18:37.577Z,23.58
2022-12-17T23:21:07.892Z,23.67
2022-12-17T23:23:34.708Z,23.17
2022-12-17T23:26:16.930Z,21.90
2022-12-17T23:28:44.307Z,22.52
2022-12-17T23:31:19.157Z,23.05
2022-12-17T23:33:46.348Z,25.02
2022-12-17T23:36:15.835Z,23.95
2022-12-17T23:38:42.949Z,26.35
2022-12-17T23:41:11.528Z,25.45
2022-12-17T23:43:39.078Z,25.85
2022-12-17T23:46:07.891Z,26.02
2022-12-17T23:48:40.709Z,28.70
2022-12-17T23:51:10.825Z,29.33
2022-12-17T23:53:38.672Z,33.88
2022-12-17T23:56:13.947Z,34.53
2022-12-17T23:58:42.399Z,35.72
